Time;durP1;ratioP1;P1;durP2;ratioP2;P2;SDS_P1;SDS_P2;PMS_P1;PMS_P2;Temp;Humidity;BMP_temperature;BMP_pressure;BME280_temperature;BME280_humidity;BME280_pressure;Samples;Min_cycle;Max_cycle;Signal;HPM_P1;HPM_P2
2024/04/08 00:01:54;;;;;;;1.85;0.90;;;18.90;64.20;;;;;;5488831;26;20689;-67
2024/04/08 00:04:19;;;;;;;1.35;0.90;;;18.90;64.30;;;;;;5487627;26;20674;-67
2024/04/08 00:06:45;;;;;;;1.25;0.95;;;18.90;64.30;;;;;;5488925;26;20247;-67
2024/04/08 00:09:11;;;;;;;2.20;1.00;;;18.90;64.20;;;;;;5487404;26;20253;-66
2024/04/08 00:11:36;;;;;;;1.20;0.80;;;18.80;64.20;;;;;;5488876;26;20673;-66
2024/04/08 00:14:02;;;;;;;2.65;1.05;;;18.90;64.30;;;;;;5488619;26;20787;-66
2024/04/08 00:16:28;;;;;;;2.60;1.00;;;18.90;64.30;;;;;;5487407;26;20210;-66
2024/04/08 00:18:54;;;;;;;2.17;1.13;;;18.90;64.30;;;;;;5488487;26;20256;-67
2024/04/08 00:21:19;;;;;;;1.13;0.93;;;18.90;64.40;;;;;;5488283;26;20222;-66
2024/04/08 00:23:45;;;;;;;1.55;0.90;;;18.90;64.30;;;;;;5487811;26;20550;-66
2024/04/08 00:26:10;;;;;;;1.00;0.90;;;18.90;64.30;;;;;;5488150;26;20215;-66
2024/04/08 00:28:39;;;;;;;2.05;0.80;;;18.90;64.40;;;;;;5488512;26;20375;-66
2024/04/08 00:31:05;;;;;;;1.67;0.90;;;18.90;64.40;;;;;;5487637;26;20214;-67
2024/04/08 00:33:31;;;;;;;0.82;0.82;;;18.90;64.30;;;;;;5487339;26;20256;-66
2024/04/08 00:35:57;;;;;;;1.10;0.80;;;18.90;64.30;;;;;;5488311;26;20673;-67
2024/04/08 00:38:22;;;;;;;1.30;0.90;;;18.90;64.30;;;;;;5487160;26;20763;-66
2024/04/08 00:40:48;;;;;;;1.33;0.88;;;18.90;64.30;;;;;;5488358;26;20260;-66
2024/04/08 00:43:13;;;;;;;1.25;0.80;;;18.90;64.30;;;;;;5487821;26;20222;-67
2024/04/08 00:45:40;;;;;;;1.33;0.80;;;18.90;64.30;;;;;;5487310;26;20218;-66
2024/04/08 00:48:07;;;;;;;1.27;1.05;;;18.90;64.40;;;;;;5488006;26;20604;-67
2024/04/08 00:50:32;;;;;;;1.17;1.08;;;18.90;64.30;;;;;;5486098;26;20222;-67
2024/04/08 00:52:58;;;;;;;1.40;1.10;;;18.80;64.30;;;;;;5485703;26;20322;-67
2024/04/08 00:55:23;;;;;;;1.67;1.00;;;18.90;64.40;;;;;;5486053;26;20260;-67
2024/04/08 00:57:49;;;;;;;1.58;0.93;;;18.90;64.30;;;;;;5487821;26;20238;-66
2024/04/08 01:00:15;;;;;;;2.67;1.23;;;18.80;64.30;;;;;;5486692;26;20218;-66
2024/04/08 01:02:40;;;;;;;1.35;0.98;;;18.80;64.30;;;;;;5487943;26;20252;-67
2024/04/08 01:05:08;;;;;;;1.30;0.80;;;18.80;64.30;;;;;;5487792;26;20318;-67
2024/04/08 01:07:34;;;;;;;0.95;0.82;;;18.90;64.40;;;;;;5487092;26;20282;-67
2024/04/08 01:09:59;;;;;;;0.93;0.80;;;18.80;64.40;;;;;;5485967;26;20219;-66
2024/04/08 01:12:25;;;;;;;1.58;1.10;;;18.80;65.20;;;;;;5487079;26;20266;-66
2024/04/08 01:14:50;;;;;;;1.17;0.63;;;18.80;64.30;;;;;;5455200;26;20226;-66
2024/04/08 01:17:16;;;;;;;0.88;0.80;;;18.80;64.40;;;;;;5487141;26;20234;-66
2024/04/08 01:19:44;;;;;;;0.90;0.90;;;18.80;64.30;;;;;;5486809;26;20257;-66
2024/04/08 01:22:10;;;;;;;1.63;1.05;;;18.80;64.40;;;;;;5487215;26;20305;-66
2024/04/08 01:24:36;;;;;;;1.63;0.98;;;18.80;64.50;;;;;;5487710;26;20253;-67
2024/04/08 01:27:01;;;;;;;1.67;1.10;;;18.80;64.40;;;;;;5486690;26;20215;-66
2024/04/08 01:29:28;;;;;;;1.92;1.25;;;18.80;64.30;;;;;;5485468;26;20226;-66
2024/04/08 01:31:53;;;;;;;1.58;1.00;;;18.80;64.30;;;;;;5487255;26;20214;-66
2024/04/08 01:34:19;;;;;;;1.17;1.00;;;18.80;64.40;;;;;;5486176;26;20214;-66
2024/04/08 01:36:44;;;;;;;1.63;0.95;;;18.80;64.40;;;;;;5487441;26;20214;-67
2024/04/08 01:39:10;;;;;;;1.20;0.88;;;18.80;64.50;;;;;;5486731;26;20218;-67
2024/04/08 01:41:35;;;;;;;1.50;0.90;;;18.80;64.30;;;;;;5486473;26;20218;-66
2024/04/08 01:44:01;;;;;;;1.45;0.90;;;18.80;64.30;;;;;;5487261;26;20569;-67
2024/04/08 01:46:32;;;;;;;1.13;0.90;;;18.80;64.40;;;;;;5490412;26;20223;-67
2024/04/08 01:48:58;;;;;;;1.35;1.15;;;18.80;64.40;;;;;;5489278;26;20215;-67
2024/04/08 01:51:23;;;;;;;0.90;0.70;;;18.80;64.40;;;;;;5490487;26;20252;-66
2024/04/08 01:53:49;;;;;;;2.00;1.00;;;18.80;64.50;;;;;;5490775;26;20253;-67
2024/04/08 01:56:14;;;;;;;1.25;0.90;;;18.80;64.50;;;;;;5489431;26;20630;-66
2024/04/08 01:58:40;;;;;;;0.90;0.80;;;18.80;64.40;;;;;;5490534;26;20224;-66
2024/04/08 02:01:05;;;;;;;1.58;0.95;;;18.70;64.50;;;;;;5490614;26;20622;-66
2024/04/08 02:03:31;;;;;;;1.60;1.05;;;18.80;64.50;;;;;;5489447;26;20222;-66
2024/04/08 02:05:56;;;;;;;2.40;1.20;;;18.80;64.40;;;;;;5490471;26;20214;-67
2024/04/08 02:08:22;;;;;;;0.85;0.82;;;18.80;64.40;;;;;;5490179;26;20210;-66
2024/04/08 02:10:49;;;;;;;1.38;1.00;;;18.80;64.50;;;;;;5489631;26;20260;-67
2024/04/08 02:13:14;;;;;;;1.13;1.02;;;18.80;64.50;;;;;;5490003;26;20769;-66
2024/04/08 02:15:41;;;;;;;1.77;1.00;;;18.80;64.40;;;;;;5490419;26;20210;-66
2024/04/08 02:18:07;;;;;;;1.02;1.00;;;18.70;64.40;;;;;;5487746;26;20218;-67
2024/04/08 02:20:39;;;;;;;1.40;1.15;;;18.70;64.40;;;;;;5490246;26;20253;-66
2024/04/08 02:23:04;;;;;;;0.90;0.90;;;18.80;64.50;;;;;;5489421;26;20210;-66
2024/04/08 02:25:30;;;;;;;1.30;1.15;;;18.80;64.40;;;;;;5489977;26;20257;-66
2024/04/08 02:27:55;;;;;;;1.00;0.90;;;18.70;64.30;;;;;;5489986;26;20274;-66
2024/04/08 02:30:22;;;;;;;2.03;1.00;;;18.70;64.40;;;;;;5489086;26;20219;-66
2024/04/08 02:32:47;;;;;;;0.85;0.85;;;18.70;64.40;;;;;;5490376;26;20218;-67
2024/04/08 02:35:14;;;;;;;1.55;1.20;;;18.80;64.40;;;;;;5489672;26;20222;-66
2024/04/08 02:37:42;;;;;;;1.65;0.85;;;18.70;64.30;;;;;;5489403;26;20218;-67
2024/04/08 02:40:10;;;;;;;1.42;1.00;;;18.70;64.30;;;;;;5488334;26;20273;-66
2024/04/08 02:42:36;;;;;;;1.67;0.95;;;18.70;64.30;;;;;;5490159;26;20582;-67
2024/04/08 02:45:04;;;;;;;1.40;1.20;;;18.80;64.40;;;;;;5489074;26;20687;-67
2024/04/08 02:47:30;;;;;;;2.45;1.10;;;18.70;64.40;;;;;;5489644;26;20697;-67
2024/04/08 02:49:56;;;;;;;1.45;0.95;;;18.70;64.40;;;;;;5489777;26;20215;-67
2024/04/08 02:52:21;;;;;;;1.27;0.93;;;18.70;64.40;;;;;;5489000;26;20223;-66
2024/04/08 02:54:47;;;;;;;1.17;1.08;;;18.70;64.40;;;;;;5489622;26;20226;-67
2024/04/08 02:57:12;;;;;;;1.38;1.08;;;18.70;64.40;;;;;;5489044;26;20281;-67
2024/04/08 02:59:38;;;;;;;1.95;1.05;;;18.70;64.30;;;;;;5488964;26;20218;-66
2024/04/08 03:02:03;;;;;;;1.52;1.02;;;18.70;64.30;;;;;;5489805;26;20223;-67
2024/04/08 03:04:29;;;;;;;1.20;1.08;;;18.70;64.40;;;;;;5487768;26;20222;-67
2024/04/08 03:06:55;;;;;;;1.30;1.02;;;18.70;64.30;;;;;;5488819;26;20262;-67
2024/04/08 03:09:21;;;;;;;1.00;0.90;;;18.60;64.30;;;;;;5489421;26;20262;-67
2024/04/08 03:11:46;;;;;;;1.65;1.00;;;18.70;64.40;;;;;;5489764;26;20228;-66
2024/04/08 03:14:12;;;;;;;1.88;1.00;;;18.70;64.40;;;;;;5488255;26;20223;-66
2024/04/08 03:16:37;;;;;;;1.50;1.10;;;18.60;64.30;;;;;;5489518;26;20226;-67
2024/04/08 03:19:03;;;;;;;0.90;0.80;;;18.70;64.30;;;;;;5488724;26;20253;-67
2024/04/08 03:21:28;;;;;;;1.23;1.10;;;18.70;65.00;;;;;;5489307;26;20290;-66
2024/04/08 03:23:56;;;;;;;1.08;0.98;;;18.70;64.30;;;;;;5489459;26;20676;-66
2024/04/08 03:26:21;;;;;;;1.48;0.90;;;18.70;64.40;;;;;;5486646;26;20215;-66
2024/04/08 03:28:47;;;;;;;2.67;1.30;;;18.70;64.40;;;;;;5489582;26;20253;-66
2024/04/08 03:31:13;;;;;;;2.05;1.40;;;18.70;64.30;;;;;;5489064;26;20829;-66
2024/04/08 03:33:39;;;;;;;2.22;1.33;;;18.60;64.40;;;;;;5488831;26;20218;-67
2024/04/08 03:36:08;;;;;;;1.23;1.10;;;18.70;64.40;;;;;;5489366;26;20291;-67
2024/04/08 03:38:34;;;;;;;1.65;1.00;;;18.70;64.40;;;;;;5489300;26;20218;-67
2024/04/08 03:41:06;;;;;;;1.95;1.10;;;18.70;64.40;;;;;;5488338;26;20761;-67
2024/04/08 03:43:32;;;;;;;1.88;0.93;;;18.70;64.40;;;;;;5488862;26;20219;-67
2024/04/08 03:45:58;;;;;;;1.13;1.02;;;18.60;64.40;;;;;;5489171;26;20218;-67
2024/04/08 03:48:23;;;;;;;1.45;1.23;;;18.60;64.40;;;;;;5487941;26;20568;-67
2024/04/08 03:50:49;;;;;;;1.45;1.30;;;18.60;64.40;;;;;;5489071;26;20253;-67
2024/04/08 03:53:15;;;;;;;0.98;0.90;;;18.60;64.40;;;;;;5488554;26;20230;-67
2024/04/08 03:55:40;;;;;;;1.90;1.08;;;18.60;64.40;;;;;;5488239;26;20260;-66
2024/04/08 03:58:06;;;;;;;1.52;1.00;;;18.70;64.50;;;;;;5488723;26;20230;-67
2024/04/08 04:00:31;;;;;;;1.23;1.13;;;18.60;64.40;;;;;;5488619;26;20260;-67
2024/04/08 04:02:57;;;;;;;1.33;1.23;;;18.60;64.40;;;;;;5487904;26;20222;-67
2024/04/08 04:05:22;;;;;;;1.38;1.10;;;18.70;64.50;;;;;;5488476;26;20218;-67
2024/04/08 04:07:49;;;;;;;1.35;1.08;;;18.60;64.40;;;;;;5487680;26;20222;-67
2024/04/08 04:10:16;;;;;;;1.20;1.10;;;18.60;64.40;;;;;;5487413;26;20238;-67
2024/04/08 04:12:41;;;;;;;1.42;1.08;;;18.60;64.50;;;;;;5488915;26;20230;-67
2024/04/08 04:15:10;;;;;;;1.10;1.00;;;18.60;64.40;;;;;;5488599;26;20278;-67
2024/04/08 04:17:35;;;;;;;1.15;1.10;;;18.60;64.40;;;;;;5487857;26;20257;-67
2024/04/08 04:20:03;;;;;;;1.98;1.30;;;18.60;64.40;;;;;;5488472;26;20285;-67
2024/04/08 04:22:29;;;;;;;1.80;1.13;;;18.60;64.40;;;;;;5487510;26;20314;-67
2024/04/08 04:24:54;;;;;;;0.80;0.80;;;18.60;64.40;;;;;;5488452;26;20223;-66
2024/04/08 04:27:20;;;;;;;1.23;1.10;;;18.60;64.50;;;;;;5488096;26;20257;-67
2024/04/08 04:29:46;;;;;;;1.35;1.10;;;18.60;64.40;;;;;;5487680;26;20263;-66
2024/04/08 04:32:11;;;;;;;1.00;0.90;;;18.60;64.40;;;;;;5487956;26;20249;-66
2024/04/08 04:34:37;;;;;;;2.30;1.10;;;18.60;64.50;;;;;;5488579;26;20221;-67
2024/04/08 04:37:03;;;;;;;1.27;1.10;;;18.60;64.50;;;;;;5487410;26;20555;-66
2024/04/08 04:39:29;;;;;;;2.63;1.33;;;18.60;64.40;;;;;;5487902;26;20694;-66
2024/04/08 04:41:55;;;;;;;1.13;0.90;;;18.50;64.40;;;;;;5488066;26;20214;-67
2024/04/08 04:44:21;;;;;;;2.83;1.13;;;18.50;64.40;;;;;;5487114;26;20257;-67
2024/04/08 04:46:47;;;;;;;2.33;1.27;;;18.60;64.50;;;;;;5488219;26;20219;-67
2024/04/08 04:49:13;;;;;;;1.77;1.30;;;18.60;64.50;;;;;;5487747;26;20420;-67
2024/04/08 04:51:38;;;;;;;2.08;1.00;;;18.60;64.50;;;;;;5487224;26;20678;-67
2024/04/08 04:54:04;;;;;;;1.30;1.05;;;18.60;65.60;;;;;;5487957;26;20565;-66
2024/04/08 04:56:30;;;;;;;1.52;1.10;;;18.60;64.60;;;;;;5487753;26;20543;-67
2024/04/08 04:58:55;;;;;;;2.25;1.35;;;18.60;64.40;;;;;;5486857;26;20226;-67
2024/04/08 05:01:21;;;;;;;2.25;1.02;;;18.60;64.60;;;;;;5487386;26;20318;-66
2024/04/08 05:03:47;;;;;;;1.45;0.80;;;18.60;64.50;;;;;;5487664;26;20625;-67
2024/04/08 05:06:14;;;;;;;1.90;1.17;;;18.60;64.60;;;;;;5486467;26;20226;-68
2024/04/08 05:08:39;;;;;;;1.85;1.02;;;18.60;64.60;;;;;;5487913;26;20233;-68
2024/04/08 05:11:05;;;;;;;1.95;0.90;;;18.60;64.60;;;;;;5487639;26;20246;-67
2024/04/08 05:13:30;;;;;;;1.20;0.98;;;18.60;64.50;;;;;;5486520;26;20258;-66
2024/04/08 05:16:00;;;;;;;1.33;1.08;;;18.60;64.50;;;;;;5487487;26;20222;-67
2024/04/08 05:18:26;;;;;;;2.05;1.23;;;18.50;64.50;;;;;;5488014;26;20222;-67
2024/04/08 05:20:52;;;;;;;2.47;1.20;;;18.60;64.60;;;;;;5490254;26;20253;-67
2024/04/08 05:23:20;;;;;;;1.33;1.00;;;18.60;64.50;;;;;;5490830;26;20562;-68
2024/04/08 05:25:46;;;;;;;1.13;1.05;;;18.60;64.70;;;;;;5490329;26;20225;-67
2024/04/08 05:28:12;;;;;;;1.17;1.00;;;18.60;64.40;;;;;;5490677;26;20257;-67
2024/04/08 05:30:38;;;;;;;1.25;1.15;;;18.60;64.50;;;;;;5491114;26;20214;-68
2024/04/08 05:33:07;;;;;;;1.90;1.20;;;18.60;64.50;;;;;;5490223;26;20218;-67
2024/04/08 05:35:32;;;;;;;3.35;1.30;;;18.50;64.40;;;;;;5490871;26;20725;-67
2024/04/08 05:37:58;;;;;;;1.17;1.08;;;18.60;64.40;;;;;;5490747;26;20226;-68
2024/04/08 05:40:24;;;;;;;3.00;1.33;;;18.60;64.60;;;;;;5489759;26;20219;-68
2024/04/08 05:42:50;;;;;;;1.67;1.50;;;18.50;64.50;;;;;;5491066;26;20601;-68
2024/04/08 05:45:15;;;;;;;2.03;1.13;;;18.50;64.40;;;;;;5490335;26;20773;-68
2024/04/08 05:47:41;;;;;;;1.77;1.20;;;18.60;64.50;;;;;;5489820;26;20218;-68
2024/04/08 05:50:07;;;;;;;1.50;1.08;;;18.50;64.50;;;;;;5490720;26;20218;-68
2024/04/08 05:52:33;;;;;;;2.33;1.48;;;18.50;64.50;;;;;;5490750;26;20210;-68
2024/04/08 05:54:58;;;;;;;2.42;1.33;;;18.50;64.50;;;;;;5489788;26;20291;-68
2024/04/08 05:57:25;;;;;;;2.17;1.13;;;18.50;64.40;;;;;;5490121;26;20273;-67
2024/04/08 05:59:50;;;;;;;1.65;1.00;;;18.60;64.60;;;;;;5490871;26;20222;-68
2024/04/08 06:02:16;;;;;;;1.92;1.25;;;18.60;65.50;;;;;;5489253;26;20681;-67
2024/04/08 06:04:41;;;;;;;1.23;1.10;;;18.50;64.40;;;;;;5490604;26;20230;-68
2024/04/08 06:07:08;;;;;;;1.27;1.17;;;18.50;64.50;;;;;;5490440;26;20218;-67
2024/04/08 06:09:34;;;;;;;1.35;1.20;;;18.60;64.50;;;;;;5489825;26;20265;-68
2024/04/08 06:12:00;;;;;;;1.83;1.13;;;18.50;64.50;;;;;;5490060;26;20226;-67
2024/04/08 06:14:26;;;;;;;1.27;1.17;;;18.50;64.40;;;;;;5490076;26;20218;-66
2024/04/08 06:16:51;;;;;;;2.10;1.20;;;18.50;64.50;;;;;;5489517;26;20215;-67
2024/04/08 06:19:17;;;;;;;1.27;1.13;;;18.60;64.50;;;;;;5489747;26;20257;-67
2024/04/08 06:21:43;;;;;;;1.13;1.10;;;18.50;64.50;;;;;;5490508;26;20218;-66
2024/04/08 06:24:09;;;;;;;2.00;1.20;;;18.60;64.50;;;;;;5489073;26;20270;-66
2024/04/08 06:26:34;;;;;;;1.17;1.10;;;18.50;64.60;;;;;;5490349;26;20548;-66
2024/04/08 06:29:00;;;;;;;2.45;1.20;;;18.60;64.50;;;;;;5488970;26;20737;-67
2024/04/08 06:31:26;;;;;;;2.40;1.30;;;18.60;64.50;;;;;;5488655;26;20222;-67
2024/04/08 06:33:51;;;;;;;1.17;1.08;;;18.60;64.40;;;;;;5489965;26;20218;-67
2024/04/08 06:36:21;;;;;;;1.90;1.35;;;18.60;64.40;;;;;;5488845;26;20218;-68
2024/04/08 06:38:46;;;;;;;1.35;1.02;;;18.60;64.40;;;;;;5490126;26;20215;-68
2024/04/08 06:41:12;;;;;;;1.08;0.95;;;18.60;64.40;;;;;;5488635;26;20218;-67
2024/04/08 06:43:38;;;;;;;1.52;1.17;;;18.60;64.40;;;;;;5489234;26;20609;-68
2024/04/08 06:46:04;;;;;;;1.90;0.98;;;18.60;64.40;;;;;;5489937;26;20249;-69
2024/04/08 06:48:29;;;;;;;1.73;1.30;;;18.60;64.50;;;;;;5489545;26;20214;-68
2024/04/08 06:50:55;;;;;;;1.42;1.20;;;18.70;64.50;;;;;;5488941;26;20261;-66
2024/04/08 06:53:22;;;;;;;2.45;1.40;;;18.70;64.80;;;;;;5489578;26;20218;-67
2024/04/08 06:55:47;;;;;;;3.38;1.25;;;18.70;65.00;;;;;;5490074;26;20218;-67
2024/04/08 06:58:18;;;;;;;3.58;1.48;;;18.70;64.80;;;;;;5487977;26;20277;-66
2024/04/08 07:00:45;;;;;;;1.77;0.98;;;18.70;65.10;;;;;;5489918;26;20677;-67
2024/04/08 07:03:11;;;;;;;1.65;1.08;;;18.70;64.80;;;;;;5489276;26;20314;-67
2024/04/08 07:05:36;;;;;;;1.15;0.98;;;18.70;64.60;;;;;;5488888;26;20685;-67
2024/04/08 07:08:02;;;;;;;2.67;1.25;;;18.80;64.80;;;;;;5489597;26;20222;-68
2024/04/08 07:10:28;;;;;;;2.55;1.10;;;18.70;64.70;;;;;;5489348;26;20261;-67
2024/04/08 07:12:53;;;;;;;2.10;0.98;;;18.70;64.70;;;;;;5488753;26;20559;-67
2024/04/08 07:15:20;;;;;;;1.38;1.10;;;18.70;64.70;;;;;;5489297;26;20603;-67
2024/04/08 07:17:46;;;;;;;2.13;1.08;;;18.70;64.80;;;;;;5489517;26;20261;-65
2024/04/08 07:20:12;;;;;;;2.13;1.23;;;18.70;64.80;;;;;;5488069;26;20219;-67
2024/04/08 07:22:41;;;;;;;1.95;1.00;;;18.70;64.80;;;;;;5489613;26;20693;-67
2024/04/08 07:25:06;;;;;;;1.10;1.00;;;18.70;64.80;;;;;;5489405;26;20218;-66
2024/04/08 07:27:35;;;;;;;2.15;1.20;;;18.70;64.80;;;;;;5488265;26;20321;-66
2024/04/08 07:30:04;;;;;;;3.13;1.00;;;18.70;64.80;;;;;;5489428;26;20219;-66
2024/04/08 07:32:30;;;;;;;2.35;1.25;;;18.70;65.60;;;;;;5488174;26;20793;-67
2024/04/08 07:34:56;;;;;;;1.73;1.10;;;18.70;64.80;;;;;;5489272;26;20282;-66
2024/04/08 07:37:22;;;;;;;1.88;1.20;;;18.70;64.70;;;;;;5488893;26;20575;-67
2024/04/08 07:39:48;;;;;;;2.15;1.30;;;18.70;64.70;;;;;;5488540;26;20253;-67
2024/04/08 07:42:14;;;;;;;1.52;1.17;;;18.70;64.70;;;;;;5487090;26;20286;-67
2024/04/08 07:44:39;;;;;;;1.55;1.45;;;18.70;64.50;;;;;;5489150;26;20222;-68
2024/04/08 07:47:05;;;;;;;1.13;1.05;;;18.70;64.50;;;;;;5488301;26;20218;-67
2024/04/08 07:49:30;;;;;;;1.58;1.30;;;18.80;65.40;;;;;;5488708;26;20226;-67
2024/04/08 07:51:56;;;;;;;2.63;0.90;;;18.80;64.50;;;;;;5489129;26;20575;-67
2024/04/08 07:54:21;;;;;;;2.22;1.20;;;18.70;64.50;;;;;;5487733;26;20222;-67
2024/04/08 07:56:47;;;;;;;2.80;1.20;;;18.80;64.50;;;;;;5489185;26;20693;-67
2024/04/08 07:59:13;;;;;;;1.00;1.00;;;18.80;64.40;;;;;;5488233;26;20283;-65
2024/04/08 08:01:38;;;;;;;1.45;1.02;;;18.80;64.40;;;;;;5488242;26;20257;-67
2024/04/08 08:04:04;;;;;;;1.95;1.00;;;18.90;64.40;;;;;;5488707;26;20230;-67
2024/04/08 08:06:29;;;;;;;1.85;1.33;;;18.90;64.30;;;;;;5488716;26;20219;-67
2024/04/08 08:08:55;;;;;;;1.52;1.00;;;19.00;64.20;;;;;;5488103;26;20260;-67
2024/04/08 08:11:20;;;;;;;2.65;0.93;;;19.10;64.10;;;;;;5488514;26;20226;-66
2024/04/08 08:13:46;;;;;;;1.25;1.15;;;19.10;63.90;;;;;;5488772;26;20256;-66
2024/04/08 08:16:11;;;;;;;1.42;1.00;;;19.10;63.90;;;;;;5487505;26;20218;-66
2024/04/08 08:18:37;;;;;;;1.42;1.23;;;19.10;63.90;;;;;;5488823;26;20226;-67
2024/04/08 08:21:05;;;;;;;2.47;1.30;;;19.10;63.90;;;;;;5488527;26;20733;-66
2024/04/08 08:23:30;;;;;;;1.67;1.20;;;19.20;63.80;;;;;;5487507;26;20655;-66
2024/04/08 08:25:56;;;;;;;0.88;0.82;;;19.30;63.80;;;;;;5488422;26;20234;-66
2024/04/08 08:28:22;;;;;;;3.38;1.30;;;19.20;63.70;;;;;;5488088;26;20295;-66
2024/04/08 08:30:48;;;;;;;1.58;1.00;;;19.20;63.70;;;;;;5487673;26;20234;-66
2024/04/08 08:33:13;;;;;;;1.50;0.95;;;19.30;63.70;;;;;;5487998;26;20547;-67
2024/04/08 08:35:39;;;;;;;1.08;0.98;;;19.30;63.90;;;;;;5487599;26;20673;-66
2024/04/08 08:38:06;;;;;;;1.60;0.98;;;19.30;63.70;;;;;;5487982;26;20218;-67
2024/04/08 08:40:32;;;;;;;1.70;1.20;;;19.30;63.70;;;;;;5487597;26;20218;-66
2024/04/08 08:42:57;;;;;;;1.70;1.20;;;19.40;63.70;;;;;;5455387;26;20218;-67
2024/04/08 08:45:24;;;;;;;2.30;1.35;;;19.40;63.70;;;;;;5487875;26;20304;-67
2024/04/08 08:47:49;;;;;;;1.98;1.15;;;19.40;63.60;;;;;;5488303;26;20314;-66
2024/04/08 08:50:15;;;;;;;1.95;1.13;;;19.40;63.60;;;;;;5485034;26;20234;-67
2024/04/08 08:52:40;;;;;;;1.05;0.98;;;19.40;63.70;;;;;;5487830;26;20257;-67
2024/04/08 08:55:06;;;;;;;1.65;1.15;;;19.40;63.70;;;;;;5487758;26;20253;-67
2024/04/08 08:57:32;;;;;;;1.33;1.17;;;19.40;63.70;;;;;;5486435;26;20277;-67
2024/04/08 08:59:58;;;;;;;1.80;1.10;;;19.40;63.70;;;;;;5486075;26;20218;-66
2024/04/08 09:02:25;;;;;;;1.88;1.27;;;19.40;63.70;;;;;;5487714;26;20262;-67
2024/04/08 09:04:50;;;;;;;1.33;1.23;;;19.50;63.70;;;;;;5487062;26;20265;-67
2024/04/08 09:07:16;;;;;;;2.10;1.20;;;19.50;63.70;;;;;;5487428;26;20270;-67
2024/04/08 09:09:52;;;;;;;1.52;1.00;;;19.50;63.60;;;;;;5487859;26;20330;-66
2024/04/08 09:12:18;;;;;;;1.10;1.00;;;19.50;63.60;;;;;;5486625;26;20257;-66
2024/04/08 09:14:44;;;;;;;1.50;1.10;;;19.50;63.70;;;;;;5487857;26;20257;-67
2024/04/08 09:17:10;;;;;;;1.52;0.93;;;19.50;63.60;;;;;;5487181;26;20222;-66
2024/04/08 09:19:36;;;;;;;1.85;1.23;;;19.60;63.70;;;;;;5486739;26;20218;-67
2024/04/08 09:22:03;;;;;;;1.45;1.20;;;19.60;63.60;;;;;;5487543;26;20319;-67
2024/04/08 09:24:29;;;;;;;1.58;1.00;;;19.60;64.40;;;;;;5487374;26;20218;-67
2024/04/08 09:26:55;;;;;;;1.33;1.05;;;19.70;63.60;;;;;;5484898;26;20218;-67
2024/04/08 09:29:20;;;;;;;1.02;0.93;;;19.60;63.50;;;;;;5487190;26;20265;-67
2024/04/08 09:31:46;;;;;;;2.10;1.20;;;19.70;63.50;;;;;;5487465;26;20230;-67
2024/04/08 09:34:11;;;;;;;1.10;1.00;;;19.70;63.50;;;;;;5484543;26;20218;-66
2024/04/08 09:36:38;;;;;;;0.88;0.85;;;19.70;63.40;;;;;;5485675;26;20234;-67
2024/04/08 09:39:03;;;;;;;1.02;0.93;;;19.80;63.50;;;;;;5454513;26;20257;-67
2024/04/08 09:41:29;;;;;;;1.70;1.25;;;19.80;63.50;;;;;;5454959;26;20278;-67
2024/04/08 09:43:55;;;;;;;1.80;1.10;;;19.80;63.40;;;;;;5487114;26;20218;-67
2024/04/08 09:46:20;;;;;;;1.67;1.25;;;19.90;63.40;;;;;;5484369;26;20218;-67
2024/04/08 09:48:46;;;;;;;1.15;1.05;;;19.80;63.40;;;;;;5485625;26;20257;-67
2024/04/08 09:51:11;;;;;;;1.98;1.00;;;19.80;63.40;;;;;;5484898;26;20579;-67
2024/04/08 09:53:37;;;;;;;1.10;1.00;;;19.70;63.60;;;;;;5454350;26;20686;-67
2024/04/08 09:56:04;;;;;;;1.33;1.15;;;19.70;63.70;;;;;;5486853;26;20218;-67
2024/04/08 09:58:33;;;;;;;1.40;1.10;;;19.70;63.80;;;;;;5486481;26;20246;-67
2024/04/08 10:01:03;;;;;;;1.23;0.95;;;19.80;63.70;;;;;;5486034;26;20587;-69
2024/04/08 10:03:29;;;;;;;1.55;1.13;;;19.80;63.70;;;;;;5455474;26;20728;-68
2024/04/08 10:05:55;;;;;;;4.72;2.28;;;19.60;63.90;;;;;;5456686;26;20219;-68
2024/04/08 10:08:20;;;;;;;4.40;2.72;;;19.60;63.90;;;;;;5457190;26;20218;-69
2024/04/08 10:10:46;;;;;;;3.40;2.03;;;19.60;64.00;;;;;;5458577;26;20226;-69
2024/04/08 10:13:11;;;;;;;2.15;1.58;;;19.60;64.00;;;;;;5490012;26;20249;-68
2024/04/08 10:15:37;;;;;;;2.65;2.03;;;19.60;64.00;;;;;;5489569;26;20218;-68
2024/04/08 10:18:03;;;;;;;2.85;1.70;;;19.70;63.90;;;;;;5490205;26;20720;-68
2024/04/08 10:20:29;;;;;;;1.60;1.50;;;19.70;63.80;;;;;;5490155;26;20257;-68
2024/04/08 10:22:54;;;;;;;1.52;1.40;;;19.70;63.70;;;;;;5487695;26;20218;-67
2024/04/08 10:25:43;;;;;;;1.58;1.48;;;19.80;63.70;;;;;;5490056;26;20266;-68
2024/04/08 10:28:14;;;;;;;1.67;1.58;;;19.80;63.50;;;;;;5489060;26;20218;-68
2024/04/08 10:30:40;;;;;;;1.70;1.60;;;19.90;63.30;;;;;;5490465;26;20675;-69
2024/04/08 10:33:06;;;;;;;1.55;1.45;;;20.00;63.30;;;;;;5488351;26;20234;-68
2024/04/08 10:35:31;;;;;;;2.38;1.45;;;20.00;63.20;;;;;;5489091;26;20321;-68
2024/04/08 10:37:57;;;;;;;1.58;1.42;;;20.00;63.30;;;;;;5489705;26;20226;-69
2024/04/08 10:40:23;;;;;;;2.42;1.60;;;19.80;63.30;;;;;;5488134;26;20257;-68
2024/04/08 10:42:50;;;;;;;1.50;1.40;;;19.90;63.60;;;;;;5488729;26;20568;-69
2024/04/08 10:45:17;;;;;;;2.80;1.48;;;19.90;63.60;;;;;;5489481;26;20262;-69
2024/04/08 10:47:42;;;;;;;1.52;1.30;;;20.00;63.40;;;;;;5488673;26;20282;-69
2024/04/08 10:50:09;;;;;;;1.55;1.30;;;20.10;64.00;;;;;;5488149;26;20218;-69
2024/04/08 10:52:36;;;;;;;2.33;1.40;;;20.20;63.10;;;;;;5489940;26;20265;-69
2024/04/08 10:55:01;;;;;;;1.08;1.05;;;20.20;63.00;;;;;;5488052;26;20226;-68
2024/04/08 10:57:27;;;;;;;1.23;1.10;;;20.20;63.00;;;;;;5488533;26;20269;-68
2024/04/08 10:59:52;;;;;;;2.05;1.30;;;20.20;63.00;;;;;;5489760;26;20238;-68
2024/04/08 11:02:18;;;;;;;2.67;1.50;;;20.20;63.10;;;;;;5489338;26;20258;-68
2024/04/08 11:04:44;;;;;;;1.63;1.25;;;20.20;63.20;;;;;;5456855;26;20265;-68
2024/04/08 11:07:12;;;;;;;1.45;1.35;;;20.20;63.30;;;;;;5488724;26;20227;-69
2024/04/08 11:09:37;;;;;;;1.95;1.40;;;20.20;63.40;;;;;;5489507;26;20227;-68
2024/04/08 11:12:04;;;;;;;1.33;1.20;;;20.20;63.50;;;;;;5488296;26;20711;-68
2024/04/08 11:14:30;;;;;;;1.40;1.30;;;20.20;63.50;;;;;;5489450;26;20215;-68
2024/04/08 11:16:59;;;;;;;1.73;1.30;;;20.20;63.50;;;;;;5488958;26;20686;-68
2024/04/08 11:19:25;;;;;;;1.27;1.17;;;20.20;63.60;;;;;;5486566;26;20222;-68
2024/04/08 11:21:51;;;;;;;1.88;1.42;;;20.20;63.70;;;;;;5489542;26;20219;-68
2024/04/08 11:24:16;;;;;;;2.10;1.45;;;20.10;63.70;;;;;;5486929;26;20269;-68
2024/04/08 11:26:42;;;;;;;1.42;1.33;;;20.10;63.80;;;;;;5488421;26;20318;-68
2024/04/08 11:29:08;;;;;;;1.42;1.33;;;20.10;63.70;;;;;;5488493;26;20223;-68
2024/04/08 11:31:33;;;;;;;1.58;1.48;;;20.10;63.70;;;;;;5456363;26;20252;-69
2024/04/08 11:33:59;;;;;;;1.65;1.30;;;20.10;63.70;;;;;;5489201;26;20619;-69
2024/04/08 11:36:24;;;;;;;1.73;1.15;;;20.10;63.80;;;;;;5488913;26;20218;-68
2024/04/08 11:38:50;;;;;;;1.20;1.10;;;20.10;64.70;;;;;;5488095;26;20223;-68
2024/04/08 11:41:16;;;;;;;1.58;1.48;;;20.10;63.90;;;;;;5488783;26;20588;-69
2024/04/08 11:43:41;;;;;;;3.70;1.63;;;20.00;63.90;;;;;;5489069;26;20218;-68
2024/04/08 11:46:07;;;;;;;2.08;1.58;;;20.00;64.10;;;;;;5488246;26;20223;-68
2024/04/08 11:48:34;;;;;;;2.15;1.60;;;20.00;64.20;;;;;;5486950;26;20226;-69
2024/04/08 11:51:00;;;;;;;1.90;1.50;;;19.90;64.20;;;;;;5489098;26;20684;-68
2024/04/08 11:53:25;;;;;;;2.33;1.60;;;19.90;64.30;;;;;;5487667;26;20270;-68
2024/04/08 11:55:51;;;;;;;2.42;1.80;;;19.90;64.40;;;;;;5488470;26;20230;-68
2024/04/08 11:58:16;;;;;;;2.85;1.50;;;19.90;64.50;;;;;;5488358;26;20293;-70
2024/04/08 12:00:42;;;;;;;2.42;1.30;;;19.80;64.70;;;;;;5488101;26;20222;-68
2024/04/08 12:03:07;;;;;;;1.80;1.70;;;19.90;65.00;;;;;;5488460;26;20382;-67
2024/04/08 12:05:33;;;;;;;3.88;1.70;;;19.80;64.90;;;;;;5487531;26;20343;-68
2024/04/08 12:07:59;;;;;;;4.22;2.13;;;19.80;64.90;;;;;;5484402;26;20704;-68
2024/04/08 12:10:24;;;;;;;3.45;2.20;;;19.80;65.00;;;;;;5485565;26;20802;-67
2024/04/08 12:12:50;;;;;;;4.30;1.70;;;19.80;64.90;;;;;;5488161;26;20226;-66
2024/04/08 12:15:19;;;;;;;2.63;1.45;;;19.80;64.90;;;;;;5487497;26;20630;-66
2024/04/08 12:17:45;;;;;;;2.70;1.90;;;19.80;64.80;;;;;;5488668;26;20269;-72
2024/04/08 12:20:11;;;;;;;3.15;1.63;;;19.90;65.00;;;;;;5488285;26;20222;-68
2024/04/08 12:22:40;;;;;;;3.38;1.70;;;19.90;65.80;;;;;;5487870;26;20596;-67
2024/04/08 12:25:05;;;;;;;4.93;1.80;;;19.90;65.40;;;;;;5488524;26;20295;-67
2024/04/08 12:27:31;;;;;;;5.82;2.10;;;19.90;65.60;;;;;;5487377;26;20226;-67
2024/04/08 12:29:57;;;;;;;5.00;2.33;;;19.90;65.60;;;;;;5487053;26;20265;-67
2024/04/08 12:32:22;;;;;;;3.63;1.85;;;19.90;65.80;;;;;;5487379;26;20257;-68
2024/04/08 12:34:48;;;;;;;3.55;2.42;;;19.80;65.70;;;;;;5487390;26;20260;-68
2024/04/08 12:37:13;;;;;;;4.03;2.17;;;19.80;65.80;;;;;;5487754;26;20218;-68
2024/04/08 12:39:40;;;;;;;3.13;2.22;;;19.80;65.90;;;;;;5486202;26;20274;-67
2024/04/08 12:42:06;;;;;;;3.53;2.38;;;19.80;65.90;;;;;;5487421;26;20265;-67